Terminal Aerodrome Forecast
Issued by NWS Amarillo, TX

Home | Current Version | Previous Version | Text Only | Print | Product List | Glossary On
Versions: 1 2 3 4 5 6 7 8 9 10 11 12 13 14 15 16 17 18 19 20 21 22 23
000
FTUS44 KAMA 231100
TAFAMA
TAF
KAMA 231120Z 2312/2412 17008KT P6SM SCT025 BKN070
     FM231400 19014KT P6SM BKN050
     FM231600 20017G28KT P6SM SCT050 BKN200
     FM240200 19010KT P6SM SCT100 BKN200=

USA.gov is the U.S. government's official web portal to all federal, state and local government web resources and services.